sensor_id;sensor_type;location;lat;lon;timestamp;P1;durP1;ratioP1;P2;durP2;ratioP2
10432;SDS011;5263;48.680;9.004;2022-10-16T00:01:23;0.50;;;0.50;;
10432;SDS011;5263;48.680;9.004;2022-10-16T00:03:51;0.60;;;0.60;;
10432;SDS011;5263;48.680;9.004;2022-10-16T00:06:18;1.73;;;0.60;;
10432;SDS011;5263;48.680;9.004;2022-10-16T00:08:45;3.20;;;0.80;;
10432;SDS011;5263;48.680;9.004;2022-10-16T00:13:41;1.00;;;0.60;;
10432;SDS011;5263;48.680;9.004;2022-10-16T00:16:08;1.73;;;0.70;;
10432;SDS011;5263;48.680;9.004;2022-10-16T00:18:35;2.37;;;0.50;;
10432;SDS011;5263;48.680;9.004;2022-10-16T00:21:06;0.60;;;0.50;;
10432;SDS011;5263;48.680;9.004;2022-10-16T00:23:44;3.13;;;0.57;;
10432;SDS011;5263;48.680;9.004;2022-10-16T00:26:11;2.40;;;0.60;;
10432;SDS011;5263;48.680;9.004;2022-10-16T00:28:41;1.70;;;0.50;;
10432;SDS011;5263;48.680;9.004;2022-10-16T00:31:08;0.67;;;0.67;;
10432;SDS011;5263;48.680;9.004;2022-10-16T00:33:36;1.10;;;0.43;;
10432;SDS011;5263;48.680;9.004;2022-10-16T00:36:03;6.13;;;0.57;;
10432;SDS011;5263;48.680;9.004;2022-10-16T00:38:30;2.40;;;0.43;;
10432;SDS011;5263;48.680;9.004;2022-10-16T00:40:56;2.30;;;1.07;;
10432;SDS011;5263;48.680;9.004;2022-10-16T00:43:32;0.60;;;0.50;;
10432;SDS011;5263;48.680;9.004;2022-10-16T00:46:02;3.40;;;0.50;;
10432;SDS011;5263;48.680;9.004;2022-10-16T00:48:29;2.30;;;0.60;;
10432;SDS011;5263;48.680;9.004;2022-10-16T00:50:56;0.87;;;0.50;;
10432;SDS011;5263;48.680;9.004;2022-10-16T00:53:23;0.40;;;0.40;;
10432;SDS011;5263;48.680;9.004;2022-10-16T00:55:49;0.83;;;0.40;;
10432;SDS011;5263;48.680;9.004;2022-10-16T00:58:15;1.20;;;0.40;;
10432;SDS011;5263;48.680;9.004;2022-10-16T01:00:41;0.33;;;0.33;;
10432;SDS011;5263;48.680;9.004;2022-10-16T01:08:58;0.40;;;0.40;;
10432;SDS011;5263;48.680;9.004;2022-10-16T01:11:50;1.47;;;0.50;;
10432;SDS011;5263;48.680;9.004;2022-10-16T01:17:11;0.67;;;0.50;;
10432;SDS011;5263;48.680;9.004;2022-10-16T01:22:23;3.87;;;0.53;;
10432;SDS011;5263;48.680;9.004;2022-10-16T01:24:58;2.63;;;0.50;;
10432;SDS011;5263;48.680;9.004;2022-10-16T01:27:30;0.50;;;0.50;;
10432;SDS011;5263;48.680;9.004;2022-10-16T01:30:04;2.47;;;0.50;;
10432;SDS011;5263;48.680;9.004;2022-10-16T01:32:40;0.60;;;0.60;;
10432;SDS011;5263;48.680;9.004;2022-10-16T01:35:23;4.17;;;0.50;;
10432;SDS011;5263;48.680;9.004;2022-10-16T01:38:00;3.70;;;0.50;;
10432;SDS011;5263;48.680;9.004;2022-10-16T01:40:27;1.50;;;0.60;;
10432;SDS011;5263;48.680;9.004;2022-10-16T01:43:05;0.70;;;0.60;;
10432;SDS011;5263;48.680;9.004;2022-10-16T01:45:40;1.30;;;0.57;;
10432;SDS011;5263;48.680;9.004;2022-10-16T01:48:09;2.23;;;0.60;;
10432;SDS011;5263;48.680;9.004;2022-10-16T01:50:39;0.80;;;0.40;;
10432;SDS011;5263;48.680;9.004;2022-10-16T01:53:07;3.20;;;0.47;;
10432;SDS011;5263;48.680;9.004;2022-10-16T01:55:37;3.37;;;0.60;;
10432;SDS011;5263;48.680;9.004;2022-10-16T01:58:10;0.93;;;0.50;;
10432;SDS011;5263;48.680;9.004;2022-10-16T02:00:38;3.27;;;0.50;;
10432;SDS011;5263;48.680;9.004;2022-10-16T02:03:07;3.27;;;0.40;;
10432;SDS011;5263;48.680;9.004;2022-10-16T02:05:51;0.30;;;0.30;;
10432;SDS011;5263;48.680;9.004;2022-10-16T02:08:19;3.90;;;0.50;;
10432;SDS011;5263;48.680;9.004;2022-10-16T02:10:47;2.47;;;0.60;;
10432;SDS011;5263;48.680;9.004;2022-10-16T02:13:23;0.50;;;0.50;;
10432;SDS011;5263;48.680;9.004;2022-10-16T02:15:54;0.60;;;0.40;;
10432;SDS011;5263;48.680;9.004;2022-10-16T02:18:19;4.17;;;1.00;;
10432;SDS011;5263;48.680;9.004;2022-10-16T02:23:12;2.20;;;0.40;;
10432;SDS011;5263;48.680;9.004;2022-10-16T02:25:45;3.10;;;0.40;;
10432;SDS011;5263;48.680;9.004;2022-10-16T02:28:17;1.43;;;0.50;;
10432;SDS011;5263;48.680;9.004;2022-10-16T02:30:45;0.30;;;0.30;;
10432;SDS011;5263;48.680;9.004;2022-10-16T02:33:15;0.73;;;0.47;;
10432;SDS011;5263;48.680;9.004;2022-10-16T02:35:43;0.57;;;0.50;;
10432;SDS011;5263;48.680;9.004;2022-10-16T02:38:11;1.27;;;0.40;;
10432;SDS011;5263;48.680;9.004;2022-10-16T02:40:39;2.30;;;0.50;;
10432;SDS011;5263;48.680;9.004;2022-10-16T02:43:06;6.73;;;0.40;;
10432;SDS011;5263;48.680;9.004;2022-10-16T02:45:31;1.83;;;0.60;;
10432;SDS011;5263;48.680;9.004;2022-10-16T02:47:57;0.53;;;0.40;;
10432;SDS011;5263;48.680;9.004;2022-10-16T02:50:23;3.67;;;0.50;;
10432;SDS011;5263;48.680;9.004;2022-10-16T02:52:52;1.93;;;0.50;;
10432;SDS011;5263;48.680;9.004;2022-10-16T02:55:17;1.07;;;0.40;;
10432;SDS011;5263;48.680;9.004;2022-10-16T02:57:43;1.80;;;0.43;;
10432;SDS011;5263;48.680;9.004;2022-10-16T03:00:09;3.60;;;0.50;;
10432;SDS011;5263;48.680;9.004;2022-10-16T03:02:38;1.03;;;0.50;;
10432;SDS011;5263;48.680;9.004;2022-10-16T03:05:04;1.07;;;0.90;;
10432;SDS011;5263;48.680;9.004;2022-10-16T03:07:30;3.10;;;0.40;;
10432;SDS011;5263;48.680;9.004;2022-10-16T03:09:55;5.10;;;0.53;;
10432;SDS011;5263;48.680;9.004;2022-10-16T03:12:21;3.90;;;0.40;;
10432;SDS011;5263;48.680;9.004;2022-10-16T03:14:47;5.13;;;0.43;;
10432;SDS011;5263;48.680;9.004;2022-10-16T03:17:12;0.80;;;0.50;;
10432;SDS011;5263;48.680;9.004;2022-10-16T03:19:38;0.70;;;0.50;;
10432;SDS011;5263;48.680;9.004;2022-10-16T03:22:04;3.60;;;0.50;;
10432;SDS011;5263;48.680;9.004;2022-10-16T03:24:30;2.87;;;0.60;;
10432;SDS011;5263;48.680;9.004;2022-10-16T03:26:55;5.30;;;0.60;;
10432;SDS011;5263;48.680;9.004;2022-10-16T03:29:21;2.33;;;0.80;;
10432;SDS011;5263;48.680;9.004;2022-10-16T03:31:46;0.40;;;0.40;;
10432;SDS011;5263;48.680;9.004;2022-10-16T03:34:14;3.13;;;0.60;;
10432;SDS011;5263;48.680;9.004;2022-10-16T03:36:40;3.83;;;0.40;;
10432;SDS011;5263;48.680;9.004;2022-10-16T03:39:05;0.87;;;0.37;;
10432;SDS011;5263;48.680;9.004;2022-10-16T03:41:31;0.43;;;0.43;;
10432;SDS011;5263;48.680;9.004;2022-10-16T03:43:56;0.23;;;0.23;;
10432;SDS011;5263;48.680;9.004;2022-10-16T03:46:22;0.40;;;0.40;;
10432;SDS011;5263;48.680;9.004;2022-10-16T03:48:48;1.80;;;0.53;;
10432;SDS011;5263;48.680;9.004;2022-10-16T03:51:13;1.90;;;0.50;;
10432;SDS011;5263;48.680;9.004;2022-10-16T03:53:39;1.67;;;0.40;;
10432;SDS011;5263;48.680;9.004;2022-10-16T03:56:04;0.50;;;0.40;;
10432;SDS011;5263;48.680;9.004;2022-10-16T03:58:30;2.63;;;0.40;;
10432;SDS011;5263;48.680;9.004;2022-10-16T04:00:56;1.90;;;0.50;;
10432;SDS011;5263;48.680;9.004;2022-10-16T04:03:21;2.13;;;0.50;;
10432;SDS011;5263;48.680;9.004;2022-10-16T04:05:48;1.87;;;0.50;;
10432;SDS011;5263;48.680;9.004;2022-10-16T04:08:14;2.50;;;0.40;;
10432;SDS011;5263;48.680;9.004;2022-10-16T04:10:39;2.63;;;0.50;;
10432;SDS011;5263;48.680;9.004;2022-10-16T04:13:08;6.10;;;0.40;;
10432;SDS011;5263;48.680;9.004;2022-10-16T04:15:34;3.03;;;0.57;;
10432;SDS011;5263;48.680;9.004;2022-10-16T04:17:59;1.33;;;0.60;;
10432;SDS011;5263;48.680;9.004;2022-10-16T04:20:25;0.60;;;0.40;;
10432;SDS011;5263;48.680;9.004;2022-10-16T04:22:51;0.70;;;0.50;;
10432;SDS011;5263;48.680;9.004;2022-10-16T04:25:16;2.50;;;0.50;;
10432;SDS011;5263;48.680;9.004;2022-10-16T04:27:42;4.03;;;0.53;;
10432;SDS011;5263;48.680;9.004;2022-10-16T04:30:08;1.67;;;0.40;;
10432;SDS011;5263;48.680;9.004;2022-10-16T04:32:34;0.70;;;0.70;;
10432;SDS011;5263;48.680;9.004;2022-10-16T04:34:59;2.93;;;0.50;;
10432;SDS011;5263;48.680;9.004;2022-10-16T04:37:25;3.00;;;1.23;;
10432;SDS011;5263;48.680;9.004;2022-10-16T04:39:52;0.40;;;0.40;;
10432;SDS011;5263;48.680;9.004;2022-10-16T04:42:18;2.77;;;0.60;;
10432;SDS011;5263;48.680;9.004;2022-10-16T04:44:44;3.70;;;0.60;;
10432;SDS011;5263;48.680;9.004;2022-10-16T04:47:09;5.60;;;0.60;;
10432;SDS011;5263;48.680;9.004;2022-10-16T04:49:35;1.90;;;0.40;;
10432;SDS011;5263;48.680;9.004;2022-10-16T04:52:01;1.03;;;0.50;;
10432;SDS011;5263;48.680;9.004;2022-10-16T04:54:26;3.70;;;0.70;;
10432;SDS011;5263;48.680;9.004;2022-10-16T04:56:52;4.97;;;0.77;;
10432;SDS011;5263;48.680;9.004;2022-10-16T04:59:18;0.80;;;0.50;;
10432;SDS011;5263;48.680;9.004;2022-10-16T05:01:44;0.57;;;0.50;;
10432;SDS011;5263;48.680;9.004;2022-10-16T05:04:10;0.73;;;0.47;;
10432;SDS011;5263;48.680;9.004;2022-10-16T05:06:36;3.47;;;0.57;;
10432;SDS011;5263;48.680;9.004;2022-10-16T05:09:03;4.37;;;0.50;;
10432;SDS011;5263;48.680;9.004;2022-10-16T05:11:33;0.87;;;0.50;;
10432;SDS011;5263;48.680;9.004;2022-10-16T05:13:59;0.93;;;0.50;;
10432;SDS011;5263;48.680;9.004;2022-10-16T05:16:25;1.90;;;0.60;;
10432;SDS011;5263;48.680;9.004;2022-10-16T05:18:51;3.40;;;0.50;;
10432;SDS011;5263;48.680;9.004;2022-10-16T05:21:17;0.40;;;0.40;;
10432;SDS011;5263;48.680;9.004;2022-10-16T05:23:43;3.67;;;0.50;;
10432;SDS011;5263;48.680;9.004;2022-10-16T05:26:11;2.20;;;0.40;;
10432;SDS011;5263;48.680;9.004;2022-10-16T05:28:37;3.60;;;0.67;;
10432;SDS011;5263;48.680;9.004;2022-10-16T05:31:05;2.10;;;0.70;;
10432;SDS011;5263;48.680;9.004;2022-10-16T05:33:31;2.33;;;0.47;;
10432;SDS011;5263;48.680;9.004;2022-10-16T05:36:00;5.20;;;0.60;;
10432;SDS011;5263;48.680;9.004;2022-10-16T05:38:28;2.63;;;0.83;;
10432;SDS011;5263;48.680;9.004;2022-10-16T05:40:53;0.97;;;0.60;;
10432;SDS011;5263;48.680;9.004;2022-10-16T05:43:19;1.77;;;0.60;;
10432;SDS011;5263;48.680;9.004;2022-10-16T05:45:53;0.97;;;0.80;;
10432;SDS011;5263;48.680;9.004;2022-10-16T05:48:31;1.30;;;0.50;;
10432;SDS011;5263;48.680;9.004;2022-10-16T05:51:00;1.03;;;0.60;;
10432;SDS011;5263;48.680;9.004;2022-10-16T05:53:32;0.70;;;0.70;;
10432;SDS011;5263;48.680;9.004;2022-10-16T05:55:59;1.90;;;0.57;;
10432;SDS011;5263;48.680;9.004;2022-10-16T05:58:27;4.67;;;0.63;;
10432;SDS011;5263;48.680;9.004;2022-10-16T06:01:09;0.50;;;0.50;;
10432;SDS011;5263;48.680;9.004;2022-10-16T06:03:37;2.53;;;0.67;;
10432;SDS011;5263;48.680;9.004;2022-10-16T06:06:12;3.20;;;0.97;;
10432;SDS011;5263;48.680;9.004;2022-10-16T06:08:40;1.77;;;1.20;;
10432;SDS011;5263;48.680;9.004;2022-10-16T06:11:08;7.73;;;1.17;;
10432;SDS011;5263;48.680;9.004;2022-10-16T06:13:34;3.03;;;0.80;;
10432;SDS011;5263;48.680;9.004;2022-10-16T06:16:01;3.00;;;0.70;;
10432;SDS011;5263;48.680;9.004;2022-10-16T06:18:28;2.37;;;1.00;;
10432;SDS011;5263;48.680;9.004;2022-10-16T06:20:54;0.60;;;0.60;;
10432;SDS011;5263;48.680;9.004;2022-10-16T06:23:20;1.13;;;0.47;;
10432;SDS011;5263;48.680;9.004;2022-10-16T06:25:46;0.90;;;0.60;;
10432;SDS011;5263;48.680;9.004;2022-10-16T06:28:13;7.43;;;0.80;;
10432;SDS011;5263;48.680;9.004;2022-10-16T06:30:39;2.43;;;0.60;;
10432;SDS011;5263;48.680;9.004;2022-10-16T06:33:05;0.97;;;0.50;;
10432;SDS011;5263;48.680;9.004;2022-10-16T06:35:31;1.10;;;0.60;;
10432;SDS011;5263;48.680;9.004;2022-10-16T06:37:57;4.53;;;0.90;;
10432;SDS011;5263;48.680;9.004;2022-10-16T06:40:23;1.80;;;1.13;;
10432;SDS011;5263;48.680;9.004;2022-10-16T06:42:48;0.83;;;0.60;;
10432;SDS011;5263;48.680;9.004;2022-10-16T06:45:14;4.43;;;0.80;;
10432;SDS011;5263;48.680;9.004;2022-10-16T06:47:40;1.00;;;0.60;;
10432;SDS011;5263;48.680;9.004;2022-10-16T06:50:05;0.90;;;0.50;;
10432;SDS011;5263;48.680;9.004;2022-10-16T06:52:32;3.23;;;0.80;;
10432;SDS011;5263;48.680;9.004;2022-10-16T06:54:58;2.70;;;0.90;;
10432;SDS011;5263;48.680;9.004;2022-10-16T06:57:24;2.77;;;1.03;;
10432;SDS011;5263;48.680;9.004;2022-10-16T06:59:50;2.83;;;0.73;;
10432;SDS011;5263;48.680;9.004;2022-10-16T07:02:16;5.27;;;0.60;;
10432;SDS011;5263;48.680;9.004;2022-10-16T07:04:41;5.83;;;0.70;;
10432;SDS011;5263;48.680;9.004;2022-10-16T07:07:07;6.90;;;0.80;;
10432;SDS011;5263;48.680;9.004;2022-10-16T07:09:38;1.03;;;0.70;;
10432;SDS011;5263;48.680;9.004;2022-10-16T07:12:05;1.33;;;0.70;;
10432;SDS011;5263;48.680;9.004;2022-10-16T07:14:30;3.30;;;1.10;;
10432;SDS011;5263;48.680;9.004;2022-10-16T07:16:56;5.80;;;0.63;;
10432;SDS011;5263;48.680;9.004;2022-10-16T07:19:21;0.60;;;0.60;;
10432;SDS011;5263;48.680;9.004;2022-10-16T07:21:47;3.37;;;0.63;;
10432;SDS011;5263;48.680;9.004;2022-10-16T07:24:13;1.60;;;0.60;;
10432;SDS011;5263;48.680;9.004;2022-10-16T07:26:40;1.40;;;0.50;;
10432;SDS011;5263;48.680;9.004;2022-10-16T07:29:08;1.23;;;0.70;;
10432;SDS011;5263;48.680;9.004;2022-10-16T07:31:38;3.13;;;0.87;;
10432;SDS011;5263;48.680;9.004;2022-10-16T07:34:04;1.03;;;0.93;;
10432;SDS011;5263;48.680;9.004;2022-10-16T07:36:30;1.20;;;1.10;;
10432;SDS011;5263;48.680;9.004;2022-10-16T07:38:56;0.87;;;0.60;;
10432;SDS011;5263;48.680;9.004;2022-10-16T07:41:21;3.23;;;0.50;;
10432;SDS011;5263;48.680;9.004;2022-10-16T07:43:48;2.30;;;0.60;;
10432;SDS011;5263;48.680;9.004;2022-10-16T07:46:15;2.67;;;0.60;;
10432;SDS011;5263;48.680;9.004;2022-10-16T07:48:43;4.27;;;1.00;;
10432;SDS011;5263;48.680;9.004;2022-10-16T07:51:12;1.93;;;0.90;;
10432;SDS011;5263;48.680;9.004;2022-10-16T07:53:39;1.20;;;0.60;;
10432;SDS011;5263;48.680;9.004;2022-10-16T07:56:05;1.60;;;0.90;;
10432;SDS011;5263;48.680;9.004;2022-10-16T07:58:32;0.97;;;0.60;;
10432;SDS011;5263;48.680;9.004;2022-10-16T08:01:05;0.50;;;0.50;;
10432;SDS011;5263;48.680;9.004;2022-10-16T08:03:32;2.10;;;1.77;;
10432;SDS011;5263;48.680;9.004;2022-10-16T08:05:58;3.63;;;2.40;;
10432;SDS011;5263;48.680;9.004;2022-10-16T08:08:24;2.80;;;0.40;;
10432;SDS011;5263;48.680;9.004;2022-10-16T08:10:50;1.17;;;0.47;;
10432;SDS011;5263;48.680;9.004;2022-10-16T08:13:16;2.93;;;0.40;;
10432;SDS011;5263;48.680;9.004;2022-10-16T08:15:42;0.50;;;0.47;;
10432;SDS011;5263;48.680;9.004;2022-10-16T08:18:09;2.33;;;1.17;;
10432;SDS011;5263;48.680;9.004;2022-10-16T08:23:12;2.93;;;0.40;;
10432;SDS011;5263;48.680;9.004;2022-10-16T08:25:38;0.30;;;0.30;;
10432;SDS011;5263;48.680;9.004;2022-10-16T08:28:09;3.40;;;0.50;;
10432;SDS011;5263;48.680;9.004;2022-10-16T08:30:35;0.47;;;0.40;;
10432;SDS011;5263;48.680;9.004;2022-10-16T08:33:01;1.37;;;0.50;;
10432;SDS011;5263;48.680;9.004;2022-10-16T08:35:27;5.80;;;0.93;;
10432;SDS011;5263;48.680;9.004;2022-10-16T08:37:53;0.60;;;0.50;;
10432;SDS011;5263;48.680;9.004;2022-10-16T08:40:19;1.07;;;0.50;;
10432;SDS011;5263;48.680;9.004;2022-10-16T08:50:48;0.83;;;0.73;;
10432;SDS011;5263;48.680;9.004;2022-10-16T08:53:17;0.20;;;0.20;;
10432;SDS011;5263;48.680;9.004;2022-10-16T08:55:53;3.90;;;0.60;;
10432;SDS011;5263;48.680;9.004;2022-10-16T08:58:23;5.50;;;0.70;;
10432;SDS011;5263;48.680;9.004;2022-10-16T09:00:53;5.93;;;0.53;;
10432;SDS011;5263;48.680;9.004;2022-10-16T09:20:31;5.50;;;0.77;;
10432;SDS011;5263;48.680;9.004;2022-10-16T09:23:07;2.70;;;0.50;;
10432;SDS011;5263;48.680;9.004;2022-10-16T09:25:47;0.50;;;0.50;;
10432;SDS011;5263;48.680;9.004;2022-10-16T09:28:14;2.17;;;0.40;;
10432;SDS011;5263;48.680;9.004;2022-10-16T09:30:41;2.23;;;0.50;;
10432;SDS011;5263;48.680;9.004;2022-10-16T09:33:07;0.63;;;0.33;;
10432;SDS011;5263;48.680;9.004;2022-10-16T09:38:30;3.17;;;1.30;;
10432;SDS011;5263;48.680;9.004;2022-10-16T09:43:48;2.40;;;0.40;;
10432;SDS011;5263;48.680;9.004;2022-10-16T09:48:59;4.23;;;0.40;;
10432;SDS011;5263;48.680;9.004;2022-10-16T09:53:57;1.43;;;0.23;;
10432;SDS011;5263;48.680;9.004;2022-10-16T09:56:30;1.03;;;0.70;;
10432;SDS011;5263;48.680;9.004;2022-10-16T09:59:02;0.40;;;0.40;;
10432;SDS011;5263;48.680;9.004;2022-10-16T10:01:44;3.37;;;0.33;;
10432;SDS011;5263;48.680;9.004;2022-10-16T10:04:18;1.23;;;0.50;;
10432;SDS011;5263;48.680;9.004;2022-10-16T10:06:49;3.97;;;0.30;;
10432;SDS011;5263;48.680;9.004;2022-10-16T10:09:21;4.80;;;0.40;;
10432;SDS011;5263;48.680;9.004;2022-10-16T10:11:54;1.17;;;0.30;;
10432;SDS011;5263;48.680;9.004;2022-10-16T10:14:27;8.37;;;0.40;;
10432;SDS011;5263;48.680;9.004;2022-10-16T10:19:36;2.10;;;0.40;;
10432;SDS011;5263;48.680;9.004;2022-10-16T10:35:25;2.43;;;0.40;;
10432;SDS011;5263;48.680;9.004;2022-10-16T10:52:10;1.47;;;0.40;;
10432;SDS011;5263;48.680;9.004;2022-10-16T10:57:29;1.37;;;0.40;;
10432;SDS011;5263;48.680;9.004;2022-10-16T11:03:06;0.57;;;0.40;;
10432;SDS011;5263;48.680;9.004;2022-10-16T11:05:44;1.37;;;0.30;;
10432;SDS011;5263;48.680;9.004;2022-10-16T11:13:35;0.83;;;0.40;;
10432;SDS011;5263;48.680;9.004;2022-10-16T11:16:15;0.30;;;0.30;;
10432;SDS011;5263;48.680;9.004;2022-10-16T11:21:23;2.93;;;0.40;;
10432;SDS011;5263;48.680;9.004;2022-10-16T11:23:57;2.63;;;0.43;;
10432;SDS011;5263;48.680;9.004;2022-10-16T11:26:30;2.47;;;0.50;;
10432;SDS011;5263;48.680;9.004;2022-10-16T11:29:00;2.80;;;0.50;;
10432;SDS011;5263;48.680;9.004;2022-10-16T11:31:36;1.33;;;0.43;;
10432;SDS011;5263;48.680;9.004;2022-10-16T11:39:27;1.07;;;0.50;;
10432;SDS011;5263;48.680;9.004;2022-10-16T11:47:15;1.47;;;0.40;;
10432;SDS011;5263;48.680;9.004;2022-10-16T11:49:45;0.85;;;0.30;;
10432;SDS011;5263;48.680;9.004;2022-10-16T11:52:33;0.68;;;0.32;;
10432;SDS011;5263;48.680;9.004;2022-10-16T11:55:12;0.85;;;0.40;;
10432;SDS011;5263;48.680;9.004;2022-10-16T11:57:49;1.65;;;0.30;;
10432;SDS011;5263;48.680;9.004;2022-10-16T12:08:14;0.82;;;0.30;;
10432;SDS011;5263;48.680;9.004;2022-10-16T12:10:42;2.38;;;0.50;;
10432;SDS011;5263;48.680;9.004;2022-10-16T12:16:05;1.90;;;0.35;;
10432;SDS011;5263;48.680;9.004;2022-10-16T12:18:37;1.52;;;0.32;;
10432;SDS011;5263;48.680;9.004;2022-10-16T12:21:11;1.65;;;0.55;;
10432;SDS011;5263;48.680;9.004;2022-10-16T12:23:50;0.40;;;0.40;;
10432;SDS011;5263;48.680;9.004;2022-10-16T12:26:25;0.68;;;0.40;;
10432;SDS011;5263;48.680;9.004;2022-10-16T12:29:12;1.23;;;0.40;;
10432;SDS011;5263;48.680;9.004;2022-10-16T12:31:56;0.40;;;0.40;;
10432;SDS011;5263;48.680;9.004;2022-10-16T12:34:23;0.88;;;0.40;;
10432;SDS011;5263;48.680;9.004;2022-10-16T12:36:54;0.80;;;0.43;;
10432;SDS011;5263;48.680;9.004;2022-10-16T12:39:23;1.08;;;0.95;;
10432;SDS011;5263;48.680;9.004;2022-10-16T12:42:03;2.58;;;0.50;;
10432;SDS011;5263;48.680;9.004;2022-10-16T12:44:35;1.27;;;0.50;;
10432;SDS011;5263;48.680;9.004;2022-10-16T12:47:01;1.23;;;0.53;;
10432;SDS011;5263;48.680;9.004;2022-10-16T12:51:53;0.77;;;0.40;;
10432;SDS011;5263;48.680;9.004;2022-10-16T12:54:21;0.47;;;0.47;;
10432;SDS011;5263;48.680;9.004;2022-10-16T13:02:53;0.93;;;0.50;;
10432;SDS011;5263;48.680;9.004;2022-10-16T13:19:16;2.47;;;0.50;;
10432;SDS011;5263;48.680;9.004;2022-10-16T13:22:04;2.27;;;0.70;;
10432;SDS011;5263;48.680;9.004;2022-10-16T13:27:28;3.83;;;0.67;;
10432;SDS011;5263;48.680;9.004;2022-10-16T13:30:51;1.10;;;0.57;;
10432;SDS011;5263;48.680;9.004;2022-10-16T13:33:02;2.83;;;0.60;;
10432;SDS011;5263;48.680;9.004;2022-10-16T13:35:47;2.03;;;0.50;;
10432;SDS011;5263;48.680;9.004;2022-10-16T13:38:18;0.50;;;0.50;;
10432;SDS011;5263;48.680;9.004;2022-10-16T13:40:53;2.30;;;0.70;;
10432;SDS011;5263;48.680;9.004;2022-10-16T13:43:32;1.90;;;0.43;;
10432;SDS011;5263;48.680;9.004;2022-10-16T13:46:01;0.53;;;0.50;;
10432;SDS011;5263;48.680;9.004;2022-10-16T13:48:43;1.63;;;0.60;;
10432;SDS011;5263;48.680;9.004;2022-10-16T13:51:14;0.67;;;0.60;;
10432;SDS011;5263;48.680;9.004;2022-10-16T13:53:41;1.00;;;0.60;;
10432;SDS011;5263;48.680;9.004;2022-10-16T13:56:16;1.23;;;0.60;;
10432;SDS011;5263;48.680;9.004;2022-10-16T13:58:44;2.60;;;0.60;;
10432;SDS011;5263;48.680;9.004;2022-10-16T14:01:18;9.50;;;0.80;;
10432;SDS011;5263;48.680;9.004;2022-10-16T14:03:48;0.93;;;0.80;;
10432;SDS011;5263;48.680;9.004;2022-10-16T14:06:16;2.20;;;0.70;;
10432;SDS011;5263;48.680;9.004;2022-10-16T14:08:50;1.90;;;0.60;;
10432;SDS011;5263;48.680;9.004;2022-10-16T14:11:25;0.63;;;0.57;;
10432;SDS011;5263;48.680;9.004;2022-10-16T14:13:51;1.77;;;0.73;;
10432;SDS011;5263;48.680;9.004;2022-10-16T14:16:19;3.00;;;0.60;;
10432;SDS011;5263;48.680;9.004;2022-10-16T14:18:57;3.37;;;0.63;;
10432;SDS011;5263;48.680;9.004;2022-10-16T14:21:27;0.83;;;0.50;;
10432;SDS011;5263;48.680;9.004;2022-10-16T14:26:26;0.53;;;0.53;;
10432;SDS011;5263;48.680;9.004;2022-10-16T14:29:03;3.90;;;0.70;;
10432;SDS011;5263;48.680;9.004;2022-10-16T14:31:40;5.90;;;0.70;;
10432;SDS011;5263;48.680;9.004;2022-10-16T14:34:25;1.90;;;0.53;;
10432;SDS011;5263;48.680;9.004;2022-10-16T14:37:08;3.10;;;0.60;;
10432;SDS011;5263;48.680;9.004;2022-10-16T14:39:51;2.93;;;0.70;;
10432;SDS011;5263;48.680;9.004;2022-10-16T14:42:18;3.27;;;1.07;;
10432;SDS011;5263;48.680;9.004;2022-10-16T14:44:48;2.33;;;0.70;;
10432;SDS011;5263;48.680;9.004;2022-10-16T14:47:18;1.63;;;0.50;;
10432;SDS011;5263;48.680;9.004;2022-10-16T14:49:50;1.47;;;0.60;;
10432;SDS011;5263;48.680;9.004;2022-10-16T14:52:15;1.50;;;0.50;;
10432;SDS011;5263;48.680;9.004;2022-10-16T14:54:41;0.70;;;0.67;;
10432;SDS011;5263;48.680;9.004;2022-10-16T14:57:17;4.53;;;0.70;;
10432;SDS011;5263;48.680;9.004;2022-10-16T14:59:44;1.33;;;0.50;;
10432;SDS011;5263;48.680;9.004;2022-10-16T15:04:45;4.50;;;0.60;;
10432;SDS011;5263;48.680;9.004;2022-10-16T15:07:11;0.93;;;0.50;;
10432;SDS011;5263;48.680;9.004;2022-10-16T15:09:37;1.07;;;0.53;;
10432;SDS011;5263;48.680;9.004;2022-10-16T15:12:03;4.80;;;0.93;;
10432;SDS011;5263;48.680;9.004;2022-10-16T15:14:29;5.37;;;0.80;;
10432;SDS011;5263;48.680;9.004;2022-10-16T15:16:54;13.73;;;0.80;;
10432;SDS011;5263;48.680;9.004;2022-10-16T15:19:20;3.23;;;0.70;;
10432;SDS011;5263;48.680;9.004;2022-10-16T15:21:45;0.50;;;0.50;;
10432;SDS011;5263;48.680;9.004;2022-10-16T15:24:12;2.60;;;0.60;;
10432;SDS011;5263;48.680;9.004;2022-10-16T15:26:39;1.37;;;0.70;;
10432;SDS011;5263;48.680;9.004;2022-10-16T15:29:04;2.30;;;0.50;;
10432;SDS011;5263;48.680;9.004;2022-10-16T15:31:30;1.47;;;0.50;;
10432;SDS011;5263;48.680;9.004;2022-10-16T15:33:56;1.03;;;0.43;;
10432;SDS011;5263;48.680;9.004;2022-10-16T15:36:32;2.77;;;0.67;;
10432;SDS011;5263;48.680;9.004;2022-10-16T15:39:01;3.33;;;0.50;;
10432;SDS011;5263;48.680;9.004;2022-10-16T15:41:31;0.60;;;0.50;;
10432;SDS011;5263;48.680;9.004;2022-10-16T15:43:56;1.63;;;0.57;;
10432;SDS011;5263;48.680;9.004;2022-10-16T15:46:22;3.83;;;0.60;;
10432;SDS011;5263;48.680;9.004;2022-10-16T15:48:49;3.60;;;0.63;;
10432;SDS011;5263;48.680;9.004;2022-10-16T15:51:20;0.83;;;0.63;;
10432;SDS011;5263;48.680;9.004;2022-10-16T15:53:45;5.93;;;0.67;;
10432;SDS011;5263;48.680;9.004;2022-10-16T15:56:11;1.63;;;0.53;;
10432;SDS011;5263;48.680;9.004;2022-10-16T15:58:38;1.73;;;0.80;;
10432;SDS011;5263;48.680;9.004;2022-10-16T16:01:04;0.60;;;0.60;;
10432;SDS011;5263;48.680;9.004;2022-10-16T16:03:31;3.50;;;0.77;;
10432;SDS011;5263;48.680;9.004;2022-10-16T16:05:58;1.13;;;0.50;;
10432;SDS011;5263;48.680;9.004;2022-10-16T16:08:28;0.73;;;0.60;;
10432;SDS011;5263;48.680;9.004;2022-10-16T16:13:26;2.60;;;0.90;;
10432;SDS011;5263;48.680;9.004;2022-10-16T16:15:52;1.97;;;1.10;;
10432;SDS011;5263;48.680;9.004;2022-10-16T16:18:18;4.57;;;2.00;;
10432;SDS011;5263;48.680;9.004;2022-10-16T16:20:43;13.47;;;5.40;;
10432;SDS011;5263;48.680;9.004;2022-10-16T16:23:09;6.87;;;4.70;;
10432;SDS011;5263;48.680;9.004;2022-10-16T16:25:35;2.90;;;2.37;;
10432;SDS011;5263;48.680;9.004;2022-10-16T16:28:01;3.90;;;1.33;;
10432;SDS011;5263;48.680;9.004;2022-10-16T16:30:26;3.47;;;1.10;;
10432;SDS011;5263;48.680;9.004;2022-10-16T16:32:52;1.57;;;1.23;;
10432;SDS011;5263;48.680;9.004;2022-10-16T16:35:18;1.70;;;1.10;;
10432;SDS011;5263;48.680;9.004;2022-10-16T16:37:43;2.00;;;0.80;;
10432;SDS011;5263;48.680;9.004;2022-10-16T16:40:09;2.80;;;0.87;;
10432;SDS011;5263;48.680;9.004;2022-10-16T16:42:34;4.17;;;0.70;;
10432;SDS011;5263;48.680;9.004;2022-10-16T16:45:00;3.03;;;0.80;;
10432;SDS011;5263;48.680;9.004;2022-10-16T16:47:25;4.27;;;0.90;;
10432;SDS011;5263;48.680;9.004;2022-10-16T16:49:51;5.17;;;1.10;;
10432;SDS011;5263;48.680;9.004;2022-10-16T16:52:17;3.10;;;0.90;;
10432;SDS011;5263;48.680;9.004;2022-10-16T16:54:42;6.70;;;1.10;;
10432;SDS011;5263;48.680;9.004;2022-10-16T16:57:09;2.73;;;1.07;;
10432;SDS011;5263;48.680;9.004;2022-10-16T16:59:35;4.60;;;0.90;;
10432;SDS011;5263;48.680;9.004;2022-10-16T17:02:01;7.23;;;0.90;;
10432;SDS011;5263;48.680;9.004;2022-10-16T17:04:27;4.93;;;0.80;;
10432;SDS011;5263;48.680;9.004;2022-10-16T17:06:53;4.37;;;0.90;;
10432;SDS011;5263;48.680;9.004;2022-10-16T17:09:20;3.33;;;0.93;;
10432;SDS011;5263;48.680;9.004;2022-10-16T17:11:46;9.30;;;1.30;;
10432;SDS011;5263;48.680;9.004;2022-10-16T17:14:13;6.30;;;1.40;;
10432;SDS011;5263;48.680;9.004;2022-10-16T17:16:39;6.50;;;0.80;;
10432;SDS011;5263;48.680;9.004;2022-10-16T17:19:10;1.83;;;0.90;;
10432;SDS011;5263;48.680;9.004;2022-10-16T17:21:39;3.00;;;1.03;;
10432;SDS011;5263;48.680;9.004;2022-10-16T17:24:05;9.40;;;1.00;;
10432;SDS011;5263;48.680;9.004;2022-10-16T17:26:31;5.97;;;1.20;;
10432;SDS011;5263;48.680;9.004;2022-10-16T17:28:58;5.67;;;1.13;;
10432;SDS011;5263;48.680;9.004;2022-10-16T17:31:30;2.93;;;1.50;;
10432;SDS011;5263;48.680;9.004;2022-10-16T17:34:00;4.30;;;1.10;;
10432;SDS011;5263;48.680;9.004;2022-10-16T17:36:31;4.00;;;2.03;;
10432;SDS011;5263;48.680;9.004;2022-10-16T17:39:10;5.97;;;1.50;;
10432;SDS011;5263;48.680;9.004;2022-10-16T17:41:37;4.50;;;1.77;;
10432;SDS011;5263;48.680;9.004;2022-10-16T17:44:03;4.33;;;1.70;;